Time;durP1;ratioP1;P1;durP2;ratioP2;P2;SDS_P1;SDS_P2;PMS_P1;PMS_P2;Temp;Humidity;BMP_temperature;BMP_pressure;BME280_temperature;BME280_humidity;BME280_pressure;Samples;Min_cycle;Max_cycle;Signal;HPM_P1;HPM_P2
2023/12/19 00:00:54;;;;;;;33.10;20.23;;;;;;;6.29;71.88;95844.56;5051363;28;20206;-45
2023/12/19 00:03:21;;;;;;;32.23;21.13;;;;;;;6.31;71.73;95849.59;5051367;28;20671;-45
2023/12/19 00:05:49;;;;;;;36.43;21.27;;;;;;;6.30;71.71;95853.00;5051189;28;20284;-44
2023/12/19 00:08:16;;;;;;;34.30;21.77;;;;;;;6.30;71.76;95853.00;5064813;28;20193;-44
2023/12/19 00:10:43;;;;;;;38.13;22.43;;;;;;;6.29;71.79;95846.28;5070916;28;20186;-45
2023/12/19 00:13:10;;;;;;;34.07;21.40;;;;;;;6.26;71.80;95852.38;5070846;28;20237;-43
2023/12/19 00:15:36;;;;;;;34.07;23.00;;;;;;;6.28;71.79;95855.63;5068922;28;20182;-47
2023/12/19 00:18:04;;;;;;;38.27;20.87;;;;;;;6.26;71.74;95854.91;5059470;28;20187;-47
2023/12/19 00:20:31;;;;;;;32.93;21.43;;;;;;;6.25;71.79;95855.81;5065079;28;20190;-46
2023/12/19 00:22:59;;;;;;;37.20;21.77;;;;;;;6.22;71.87;95845.81;5057128;28;20544;-43
2023/12/19 00:25:26;;;;;;;32.67;21.07;;;;;;;6.23;71.77;95859.34;5061941;28;20236;-46
2023/12/19 00:27:53;;;;;;;33.17;21.07;;;;;;;6.21;71.94;95859.41;5067768;28;20191;-45
2023/12/19 00:30:20;;;;;;;36.73;20.60;;;;;;;6.20;71.84;95865.38;5050799;28;20653;-45
2023/12/19 00:32:46;;;;;;;30.30;19.83;;;;;;;6.20;71.84;95864.56;5050932;28;20186;-47
2023/12/19 00:35:13;;;;;;;33.97;20.00;;;;;;;6.19;71.88;95868.03;5051698;28;20652;-42
2023/12/19 00:37:40;;;;;;;30.37;19.43;;;;;;;6.18;71.89;95872.28;5069005;28;20226;-44
2023/12/19 00:40:12;;;;;;;26.13;17.50;;;;;;;6.01;71.89;95845.25;5070492;28;20263;-43
2023/12/19 00:42:38;;;;;;;32.70;20.43;;;;;;;6.16;71.79;95866.44;5069663;28;20202;-45
2023/12/19 00:45:07;;;;;;;29.13;18.87;;;;;;;5.92;71.67;95830.50;5068731;28;20182;-47
2023/12/19 00:47:33;;;;;;;33.17;19.43;;;;;;;6.14;71.88;95860.66;5030096;28;20199;-45
2023/12/19 00:50:00;;;;;;;30.20;20.17;;;;;;;6.13;71.87;95866.63;5030710;28;20187;-45
2023/12/19 00:52:29;;;;;;;33.20;20.83;;;;;;;6.12;71.89;95862.44;5030253;28;20661;-45
2023/12/19 00:54:56;;;;;;;29.37;20.33;;;;;;;6.11;71.82;95860.81;5034926;28;20182;-47
2023/12/19 00:57:24;;;;;;;30.20;20.10;;;;;;;6.10;71.93;95856.63;5050492;28;20190;-45
2023/12/19 00:59:51;;;;;;;35.10;21.17;;;;;;;6.09;72.13;95860.09;5070558;28;20249;-45
2023/12/19 01:02:18;;;;;;;31.07;20.70;;;;;;;6.09;71.86;95854.16;5062432;28;20663;-45
2023/12/19 01:04:45;;;;;;;33.07;21.67;;;;;;;6.09;71.92;95856.69;5064660;28;20194;-43
2023/12/19 01:07:12;;;;;;;28.70;20.33;;;;;;;6.07;72.05;95845.81;5069676;28;20210;-43
2023/12/19 01:09:38;;;;;;;40.77;22.70;;;;;;;6.07;71.84;95845.81;5070078;28;20194;-43
2023/12/19 01:12:06;;;;;;;31.83;21.47;;;;;;;6.06;71.90;95841.66;5069605;28;20610;-43
2023/12/19 01:14:34;;;;;;;36.63;21.63;;;;;;;6.04;71.84;95834.09;5070386;28;20194;-44
2023/12/19 01:17:01;;;;;;;37.50;21.90;;;;;;;5.79;71.96;95799.03;5069998;28;20255;-44
2023/12/19 01:19:27;;;;;;;32.97;20.87;;;;;;;6.02;71.79;95831.66;5067771;28;20198;-44
2023/12/19 01:21:54;;;;;;;35.90;21.57;;;;;;;6.02;71.88;95831.66;5070135;28;20190;-43
2023/12/19 01:24:21;;;;;;;36.03;23.13;;;;;;;6.00;71.78;95827.53;5054400;28;20191;-43
2023/12/19 01:26:49;;;;;;;38.00;22.70;;;;;;;5.90;72.04;95811.94;5050078;28;20607;-46
2023/12/19 01:29:16;;;;;;;33.57;21.40;;;;;;;5.91;72.04;95818.66;5065911;28;20267;-45
2023/12/19 01:31:44;;;;;;;37.13;22.27;;;;;;;5.96;72.03;95826.91;5069860;28;20191;-43
2023/12/19 01:34:11;;;;;;;37.83;23.00;;;;;;;5.95;72.05;95835.41;5069310;28;20697;-45
2023/12/19 01:36:39;;;;;;;35.93;21.83;;;;;;;5.96;71.98;95828.63;5069620;28;20182;-43
2023/12/19 01:39:06;;;;;;;39.13;24.30;;;;;;;5.96;72.04;95826.09;5068839;28;20242;-45
2023/12/19 01:41:33;;;;;;;41.03;23.67;;;;;;;5.94;72.06;95822.81;5069852;28;20198;-46
2023/12/19 01:44:00;;;;;;;34.53;23.47;;;;;;;5.93;71.96;95833.88;5049665;28;20664;-44
2023/12/19 01:46:27;;;;;;;36.17;23.90;;;;;;;5.92;72.03;95827.97;5049310;28;20272;-44
2023/12/19 01:48:57;;;;;;;37.13;23.33;;;;;;;5.91;71.98;95838.97;5049111;28;20190;-46
2023/12/19 01:51:24;;;;;;;37.80;23.73;;;;;;;5.90;72.10;95828.91;5049478;28;20214;-44
2023/12/19 01:53:51;;;;;;;36.60;23.13;;;;;;;5.90;71.89;95823.81;5048616;28;20202;-42
2023/12/19 01:56:21;;;;;;;35.67;23.13;;;;;;;5.89;72.01;95820.47;5048835;28;20194;-42
2023/12/19 01:58:48;;;;;;;42.40;24.03;;;;;;;5.75;71.89;95802.63;5049671;28;20179;-43
2023/12/19 02:01:17;;;;;;;37.97;22.67;;;;;;;5.88;71.95;95823.91;5049009;28;20716;-44
2023/12/19 02:03:46;;;;;;;33.37;22.63;;;;;;;5.87;71.94;95813.81;5049342;28;20639;-43
2023/12/19 02:06:15;;;;;;;39.73;23.53;;;;;;;5.86;72.01;95819.81;5048862;28;20703;-44
2023/12/19 02:08:41;;;;;;;39.73;23.37;;;;;;;5.85;72.03;95820.72;5049514;28;20215;-45
2023/12/19 02:11:08;;;;;;;38.27;23.37;;;;;;;5.85;72.04;95805.50;5049563;28;20239;-44
2023/12/19 02:13:35;;;;;;;36.03;22.67;;;;;;;5.85;72.00;95806.31;5069259;28;20194;-45
2023/12/19 02:16:03;;;;;;;34.53;21.67;;;;;;;5.78;71.99;95797.38;5069125;28;20251;-47
2023/12/19 02:18:30;;;;;;;34.70;21.27;;;;;;;5.84;72.11;95806.41;5069124;28;20579;-47
2023/12/19 02:20:56;;;;;;;33.87;22.90;;;;;;;5.86;72.13;95802.03;5068393;28;20189;-45
2023/12/19 02:23:24;;;;;;;30.73;20.97;;;;;;;5.84;72.17;95799.59;5068990;28;20194;-46
2023/12/19 02:25:51;;;;;;;34.97;21.73;;;;;;;5.79;72.16;95801.56;5060197;28;20754;-45
2023/12/19 02:28:18;;;;;;;34.50;21.60;;;;;;;5.77;72.30;95796.56;5049142;28;20195;-46
2023/12/19 02:30:45;;;;;;;34.73;21.43;;;;;;;5.81;72.21;95799.75;5048835;28;20663;-46
2023/12/19 02:33:12;;;;;;;32.30;20.40;;;;;;;5.77;72.25;95788.94;5049037;28;20266;-47
2023/12/19 02:35:39;;;;;;;34.73;21.07;;;;;;;5.81;72.05;95799.75;5049066;28;20280;-46
2023/12/19 02:38:05;;;;;;;34.13;22.90;;;;;;;5.81;72.20;95792.13;5049031;28;20258;-45
2023/12/19 02:40:34;;;;;;;32.33;21.20;;;;;;;5.81;72.23;95791.31;5049100;28;20198;-44
2023/12/19 02:43:01;;;;;;;34.50;21.20;;;;;;;5.81;72.22;95806.56;5048909;28;20191;-45
2023/12/19 02:45:31;;;;;;;29.53;20.87;;;;;;;5.81;72.22;95804.00;5063639;28;20285;-43
2023/12/19 02:47:58;;;;;;;30.63;19.80;;;;;;;5.79;72.15;95796.50;5068781;28;20198;-43
2023/12/19 02:50:25;;;;;;;34.13;20.90;;;;;;;5.78;72.22;95797.38;5068837;28;20686;-44
2023/12/19 02:52:52;;;;;;;31.73;19.67;;;;;;;5.78;72.24;95794.81;5068708;28;20695;-44
2023/12/19 02:55:18;;;;;;;31.93;20.03;;;;;;;5.77;72.26;95790.66;5057489;28;20191;-44
2023/12/19 02:57:46;;;;;;;34.10;20.50;;;;;;;5.71;72.15;95785.91;5048881;28;20195;-44
2023/12/19 03:00:13;;;;;;;32.83;19.90;;;;;;;5.76;72.31;95789.84;5049015;28;20199;-44
2023/12/19 03:02:40;;;;;;;30.60;19.97;;;;;;;5.75;72.31;95783.13;5048541;28;20225;-44
2023/12/19 03:05:08;;;;;;;27.43;17.13;;;;;;;5.75;72.25;95790.75;5049319;28;20648;-43
2023/12/19 03:07:35;;;;;;;31.73;20.23;;;;;;;5.75;72.31;95792.47;5071988;28;20222;-47
2023/12/19 03:10:05;;;;;;;32.07;20.57;;;;;;;5.74;72.23;95789.13;5061434;28;20609;-43
2023/12/19 03:12:32;;;;;;;28.00;18.17;;;;;;;5.74;72.25;95791.66;5052204;28;20190;-45
2023/12/19 03:15:00;;;;;;;35.27;19.97;;;;;;;5.74;72.27;95790.81;5052216;28;20187;-44
2023/12/19 03:17:27;;;;;;;30.53;19.70;;;;;;;5.73;72.18;95790.00;5052264;28;20187;-43
2023/12/19 03:19:54;;;;;;;31.40;17.90;;;;;;;5.71;72.19;95783.38;5051957;28;20200;-43
2023/12/19 03:22:21;;;;;;;28.77;19.53;;;;;;;5.71;72.15;95785.91;5052171;28;20202;-43
2023/12/19 03:24:47;;;;;;;29.20;18.43;;;;;;;5.42;72.19;95745.13;5051514;28;20213;-44
2023/12/19 03:27:14;;;;;;;30.23;19.10;;;;;;;5.69;72.14;95788.53;5051758;28;20296;-44
2023/12/19 03:29:41;;;;;;;31.83;18.10;;;;;;;5.68;72.26;95789.44;5051736;28;20229;-45
2023/12/19 03:32:09;;;;;;;29.57;18.07;;;;;;;5.67;72.18;95787.78;5051858;28;20246;-43
2023/12/19 03:34:37;;;;;;;30.83;19.63;;;;;;;5.67;72.18;95792.06;5051341;28;20191;-44
2023/12/19 03:37:04;;;;;;;36.67;20.47;;;;;;;5.62;72.16;95781.34;5053108;28;20195;-44
2023/12/19 03:39:31;;;;;;;29.93;18.27;;;;;;;5.65;72.28;95788.75;5071188;28;20275;-44
2023/12/19 03:41:58;;;;;;;28.20;18.30;;;;;;;5.63;72.26;95781.25;5071561;28;20190;-43
2023/12/19 03:44:25;;;;;;;28.27;18.40;;;;;;;5.63;72.28;95790.56;5071518;28;20277;-43
2023/12/19 03:46:51;;;;;;;29.43;17.63;;;;;;;5.59;72.09;95781.50;5071496;28;20230;-43
2023/12/19 03:49:19;;;;;;;23.93;16.40;;;;;;;5.61;72.24;95787.28;5071294;28;20210;-43
2023/12/19 03:51:47;;;;;;;30.23;18.33;;;;;;;5.59;72.25;95784.84;5071279;28;20194;-43
2023/12/19 03:54:14;;;;;;;29.03;17.23;;;;;;;5.59;72.18;95781.50;5071626;28;20190;-43
2023/12/19 03:56:41;;;;;;;27.07;17.43;;;;;;;5.58;72.21;95779.84;5071385;28;20195;-45
2023/12/19 03:59:09;;;;;;;26.70;16.73;;;;;;;5.52;72.25;95764.03;5071532;28;20209;-46
2023/12/19 04:01:43;;;;;;;31.10;18.37;;;;;;;5.56;72.18;95771.50;5071180;28;20681;-44
2023/12/19 04:04:10;;;;;;;28.97;18.87;;;;;;;5.55;72.14;95770.69;5071144;28;21015;-43
2023/12/19 04:06:40;;;;;;;31.23;18.33;;;;;;;5.36;72.18;95735.31;5071071;28;20631;-42
2023/12/19 04:09:07;;;;;;;30.77;17.73;;;;;;;5.52;72.16;95758.13;5071379;28;20663;-44
2023/12/19 04:11:34;;;;;;;26.57;17.57;;;;;;;5.53;72.10;95755.53;5070963;28;20285;-44
2023/12/19 04:14:00;;;;;;;31.40;18.67;;;;;;;5.52;72.24;95758.13;5071226;28;20190;-43
2023/12/19 04:16:27;;;;;;;30.47;17.90;;;;;;;5.52;72.24;95760.69;5071238;28;20563;-44
2023/12/19 04:18:54;;;;;;;34.03;18.10;;;;;;;5.51;72.23;95761.59;5070628;28;20569;-44
2023/12/19 04:21:21;;;;;;;30.30;18.63;;;;;;;5.20;72.22;95711.66;5070836;28;20647;-44
2023/12/19 04:23:49;;;;;;;27.03;17.23;;;;;;;5.49;72.33;95764.22;5071649;28;20610;-44
2023/12/19 04:26:19;;;;;;;26.63;17.53;;;;;;;5.49;72.14;95774.34;5070678;28;20201;-43
2023/12/19 04:28:46;;;;;;;29.70;17.67;;;;;;;5.48;72.16;95769.34;5070805;28;20699;-43
2023/12/19 04:31:13;;;;;;;33.70;20.20;;;;;;;5.47;72.30;95771.06;5070581;28;20671;-45
2023/12/19 04:33:39;;;;;;;29.20;18.47;;;;;;;5.43;72.06;95766.25;5070691;28;20178;-44
2023/12/19 04:36:09;;;;;;;29.53;18.13;;;;;;;5.46;72.20;95776.22;5070905;28;20187;-45
2023/12/19 04:38:36;;;;;;;30.57;19.53;;;;;;;5.41;72.24;95776.47;5070461;28;20302;-43
2023/12/19 04:41:05;;;;;;;29.20;19.97;;;;;;;5.44;72.18;95776.31;5070467;28;20269;-44
2023/12/19 04:43:32;;;;;;;29.17;18.60;;;;;;;5.34;72.18;95769.25;5070279;28;20559;-43
2023/12/19 04:46:00;;;;;;;37.20;20.33;;;;;;;5.42;72.16;95788.25;5070653;28;20287;-43
2023/12/19 04:48:31;;;;;;;27.90;17.97;;;;;;;5.41;72.08;95786.63;5070303;28;20226;-44
2023/12/19 04:50:58;;;;;;;30.90;20.33;;;;;;;5.40;72.28;95791.78;5070539;28;20288;-43
2023/12/19 04:53:25;;;;;;;30.77;20.73;;;;;;;5.38;72.21;95791.84;5070213;28;20191;-44
2023/12/19 04:55:52;;;;;;;36.60;21.17;;;;;;;5.38;72.18;95794.38;5070373;28;20252;-44
2023/12/19 04:58:20;;;;;;;32.07;19.33;;;;;;;5.37;72.21;95795.28;5069846;28;20202;-45
2023/12/19 05:00:48;;;;;;;31.90;20.53;;;;;;;5.35;72.31;95791.19;5069659;28;20251;-44
2023/12/19 05:03:15;;;;;;;34.10;19.43;;;;;;;5.34;72.18;95794.63;5070553;28;20209;-43
2023/12/19 05:05:41;;;;;;;29.80;18.93;;;;;;;5.36;72.18;95806.34;5070119;28;20754;-44
2023/12/19 05:08:10;;;;;;;32.73;20.27;;;;;;;5.32;72.20;95796.44;5070128;28;20663;-45
2023/12/19 05:10:37;;;;;;;35.43;20.77;;;;;;;5.34;72.08;95795.44;5069777;28;20190;-42
2023/12/19 05:13:05;;;;;;;29.47;19.53;;;;;;;5.33;72.23;95801.41;5068899;28;20190;-44
2023/12/19 05:15:33;;;;;;;31.60;19.73;;;;;;;5.34;72.06;95794.63;5040567;28;20195;-44
2023/12/19 05:18:00;;;;;;;29.07;20.57;;;;;;;5.33;72.06;95800.59;5050391;28;20202;-44
2023/12/19 05:20:27;;;;;;;35.60;21.13;;;;;;;5.32;72.21;95798.97;5048142;28;20206;-43
2023/12/19 05:22:53;;;;;;;32.13;20.87;;;;;;;5.32;72.01;95799.78;5049522;28;20215;-43
2023/12/19 05:25:20;;;;;;;36.27;21.47;;;;;;;5.30;72.11;95796.47;5049475;28;20202;-42
2023/12/19 05:27:47;;;;;;;37.33;22.63;;;;;;;4.68;71.99;95699.09;5048208;28;20230;-43
2023/12/19 05:30:16;;;;;;;38.00;22.83;;;;;;;5.31;71.96;95798.16;5047903;28;20191;-45
2023/12/19 05:32:44;;;;;;;32.73;20.07;;;;;;;5.29;72.01;95793.13;5048795;28;20206;-43
2023/12/19 05:35:10;;;;;;;33.80;22.23;;;;;;;5.14;72.24;95768.56;5049328;28;20668;-43
2023/12/19 05:37:37;;;;;;;35.63;21.57;;;;;;;5.12;72.08;95774.59;5046770;28;20300;-45
2023/12/19 05:40:05;;;;;;;36.10;22.50;;;;;;;5.30;72.07;95806.63;5046986;28;20221;-44
2023/12/19 05:42:32;;;;;;;37.97;23.30;;;;;;;5.30;72.01;95799.03;5046588;28;20202;-44
2023/12/19 05:44:58;;;;;;;35.27;21.90;;;;;;;5.24;72.04;95786.66;5046728;28;20218;-44
2023/12/19 05:47:25;;;;;;;37.00;22.77;;;;;;;5.30;72.08;95799.03;5048102;28;20222;-43
2023/12/19 05:49:53;;;;;;;38.40;23.97;;;;;;;5.10;72.20;95767.09;5051322;28;20363;-45
2023/12/19 05:52:20;;;;;;;34.43;22.57;;;;;;;5.28;72.12;95799.09;5067211;28;20193;-44
2023/12/19 05:54:47;;;;;;;36.27;24.00;;;;;;;5.32;71.98;95804.84;5066836;28;20186;-43
2023/12/19 05:57:14;;;;;;;36.47;23.83;;;;;;;5.33;72.07;95805.66;5066342;28;20195;-44
2023/12/19 05:59:40;;;;;;;34.47;22.97;;;;;;;5.34;71.98;95809.84;5066854;28;20190;-45
2023/12/19 06:02:07;;;;;;;36.13;23.57;;;;;;;5.35;71.97;95807.22;5066474;28;20189;-44
2023/12/19 06:04:35;;;;;;;34.97;23.77;;;;;;;5.36;72.00;95801.25;5066593;28;20201;-44
2023/12/19 06:07:03;;;;;;;38.43;24.10;;;;;;;5.36;71.92;95798.72;5066620;28;20742;-43
2023/12/19 06:09:31;;;;;;;32.40;14.53;;;;;;;5.67;96.85;95784.44;5066793;28;20605;-45
2023/12/19 06:11:58;;;;;;;29.90;14.03;;;;;;;6.73;100.00;95774.38;5065808;28;20263;-44
2023/12/19 06:14:24;;;;;;;27.77;20.83;;;;;;;7.66;100.00;95791.00;5066558;28;21040;-43
2023/12/19 06:16:51;;;;;;;28.43;18.23;;;;;;;8.10;100.00;95784.88;5066355;28;20281;-47
2023/12/19 06:19:18;;;;;;;29.03;18.93;;;;;;;8.23;100.00;95780.66;5066732;28;20182;-44
2023/12/19 06:21:45;;;;;;;26.97;17.87;;;;;;;8.27;100.00;95772.72;5064556;28;20190;-47
2023/12/19 06:24:13;;;;;;;26.80;18.47;;;;;;;8.30;100.00;95779.38;5057141;28;20342;-44
2023/12/19 06:26:40;;;;;;;28.47;18.53;;;;;;;8.18;100.00;95745.28;5039088;28;20200;-44
2023/12/19 06:29:08;;;;;;;32.57;20.67;;;;;;;8.46;99.79;95774.97;5046872;28;20226;-43
2023/12/19 06:31:42;;;;;;;30.03;20.80;;;;;;;8.67;96.34;95780.41;5061554;28;20198;-44
2023/12/19 06:34:09;;;;;;;35.73;22.23;;;;;;;8.87;93.14;95774.00;5049252;28;20207;-45
2023/12/19 06:36:37;;;;;;;33.23;20.37;;;;;;;9.09;89.94;95783.63;5048016;28;20544;-44
2023/12/19 06:39:04;;;;;;;36.63;22.00;;;;;;;9.30;87.74;95787.28;5047621;28;20235;-43
2023/12/19 06:41:32;;;;;;;37.97;23.53;;;;;;;9.53;85.85;95779.81;5051488;28;20629;-51
2023/12/19 06:43:59;;;;;;;38.13;24.90;;;;;;;9.85;84.58;95787.84;5053395;28;20187;-45
2023/12/19 06:46:26;;;;;;;36.80;25.43;;;;;;;10.16;83.47;95788.25;5051553;28;20199;-46
2023/12/19 06:48:53;;;;;;;43.23;28.23;;;;;;;10.46;82.49;95783.53;5051717;28;20214;-45
2023/12/19 06:51:23;;;;;;;37.37;23.57;;;;;;;10.79;81.81;95777.72;5052620;28;20183;-46
2023/12/19 06:53:52;;;;;;;37.40;26.07;;;;;;;11.13;81.12;95787.22;5051491;28;20274;-46
2023/12/19 06:56:18;;;;;;;41.17;26.27;;;;;;;11.41;80.33;95786.78;5051328;28;20191;-44
2023/12/19 06:58:48;;;;;;;37.13;25.87;;;;;;;11.78;79.62;95794.22;5052935;28;20230;-44
2023/12/19 07:01:16;;;;;;;36.87;25.77;;;;;;;12.09;78.98;95790.16;5060864;28;20214;-45
2023/12/19 07:03:43;;;;;;;45.10;26.90;;;;;;;12.44;78.07;95791.69;5067995;28;20263;-46
2023/12/19 07:06:13;;;;;;;41.07;25.73;;;;;;;12.78;77.20;95790.63;5070649;28;20287;-46
2023/12/19 07:08:40;;;;;;;42.60;27.37;;;;;;;13.11;76.27;95791.34;5070251;28;20768;-45
2023/12/19 07:11:07;;;;;;;37.90;25.87;;;;;;;13.44;75.16;95800.63;5057340;28;20198;-44
2023/12/19 07:13:34;;;;;;;39.77;25.73;;;;;;;13.72;73.80;95804.25;5064304;28;20191;-47
2023/12/19 07:16:03;;;;;;;36.43;25.83;;;;;;;14.04;72.74;95809.25;5053246;28;20190;-43
2023/12/19 07:18:29;;;;;;;38.10;25.90;;;;;;;14.32;71.71;95817.97;5053293;28;20179;-45
2023/12/19 07:20:56;;;;;;;40.20;26.67;;;;;;;14.61;70.47;95816.44;5056660;28;20194;-43
2023/12/19 07:23:23;;;;;;;39.33;26.80;;;;;;;14.74;69.30;95796.38;5051115;28;20195;-45
2023/12/19 07:25:50;;;;;;;37.07;27.00;;;;;;;15.08;68.16;95807.06;5055681;28;20265;-44
2023/12/19 07:28:17;;;;;;;40.10;27.03;;;;;;;15.36;67.21;95817.44;5052837;28;20225;-45
2023/12/19 07:30:44;;;;;;;38.33;28.10;;;;;;;15.55;66.21;95813.06;5050582;28;20297;-45
2023/12/19 07:33:12;;;;;;;38.37;28.17;;;;;;;15.79;65.42;95811.78;5051263;28;20218;-45
2023/12/19 07:35:40;;;;;;;42.30;30.37;;;;;;;15.96;64.56;95803.28;5050459;28;20206;-46
2023/12/19 07:38:08;;;;;;;40.83;29.07;;;;;;;16.16;64.03;95800.59;5051010;28;20223;-44
2023/12/19 07:40:35;;;;;;;41.00;29.33;;;;;;;16.14;63.35;95782.66;5050777;28;20199;-44
2023/12/19 07:43:02;;;;;;;44.53;31.40;;;;;;;16.17;62.51;95784.16;5050744;28;20272;-44
2023/12/19 07:45:29;;;;;;;39.47;29.30;;;;;;;16.08;62.38;95780.69;5050511;28;20195;-45
2023/12/19 07:47:56;;;;;;;45.93;30.27;;;;;;;15.92;62.18;95770.97;5066913;28;20228;-45
2023/12/19 07:50:24;;;;;;;43.47;32.37;;;;;;;15.70;61.95;95758.47;5059574;28;20240;-45
2023/12/19 07:52:52;;;;;;;44.53;31.90;;;;;;;15.51;61.84;95773.03;5049319;28;20184;-45
2023/12/19 07:55:19;;;;;;;47.10;32.27;;;;;;;15.31;61.76;95768.88;5050483;28;20188;-44
2023/12/19 07:57:46;;;;;;;41.73;30.93;;;;;;;15.10;61.67;95769.06;5063056;28;20252;-45
2023/12/19 08:00:14;;;;;;;48.60;33.30;;;;;;;14.91;61.31;95764.78;5050805;28;20183;-46
2023/12/19 08:02:40;;;;;;;47.10;32.23;;;;;;;14.80;61.09;95758.00;5050232;28;20201;-44
2023/12/19 08:05:12;;;;;;;45.43;31.13;;;;;;;14.95;60.28;95755.00;5051353;28;20184;-44
2023/12/19 08:07:40;;;;;;;44.93;30.77;;;;;;;14.86;59.82;95759.22;5048802;28;20314;-47
2023/12/19 08:10:08;;;;;;;47.27;33.30;;;;;;;14.68;59.99;95766.84;5051333;28;20191;-44
2023/12/19 08:12:34;;;;;;;46.07;31.93;;;;;;;14.51;59.99;95760.59;5066838;28;20190;-45
2023/12/19 08:15:02;;;;;;;48.33;34.03;;;;;;;14.40;60.28;95765.03;5047082;28;20201;-45
2023/12/19 08:17:29;;;;;;;46.70;31.27;;;;;;;14.39;60.05;95766.00;5060151;28;20194;-47
2023/12/19 08:19:55;;;;;;;40.50;31.00;;;;;;;14.31;59.89;95767.47;5051887;28;20183;-47
2023/12/19 08:22:23;;;;;;;51.53;33.50;;;;;;;14.21;60.03;95763.25;5050912;28;20191;-47
2023/12/19 08:24:51;;;;;;;45.27;32.30;;;;;;;14.05;59.85;95756.88;5050681;28;20281;-57
2023/12/19 08:27:22;;;;;;;47.93;33.63;;;;;;;14.02;59.86;95771.75;5050152;28;20615;-54
2023/12/19 08:29:49;;;;;;;48.40;33.47;;;;;;;14.04;59.41;95762.16;5056720;28;20594;-55
2023/12/19 08:32:16;;;;;;;44.40;32.23;;;;;;;14.15;59.13;95753.50;5056044;28;20182;-54
2023/12/19 08:34:43;;;;;;;48.47;31.20;;;;;;;14.45;58.19;95761.09;5066861;28;20190;-56
2023/12/19 08:37:10;;;;;;;44.70;32.77;;;;;;;14.73;57.25;95750.97;5058817;28;20622;-57
2023/12/19 08:39:37;;;;;;;46.73;32.30;;;;;;;14.81;56.78;95751.09;5064408;28;20230;-57
2023/12/19 08:42:05;;;;;;;49.13;32.40;;;;;;;14.59;57.11;95741.88;5049564;28;20199;-54
2023/12/19 08:44:32;;;;;;;49.27;32.77;;;;;;;14.25;57.48;95734.56;5054748;28;20610;-54
2023/12/19 08:46:59;;;;;;;48.87;32.77;;;;;;;14.05;57.77;95725.19;5065350;28;20187;-56
2023/12/19 08:49:26;;;;;;;49.73;33.10;;;;;;;13.87;58.00;95730.16;5059060;28;20272;-55
2023/12/19 08:51:52;;;;;;;43.67;32.00;;;;;;;13.69;58.32;95714.56;5049849;28;20201;-55
2023/12/19 08:54:19;;;;;;;44.60;33.07;;;;;;;13.52;58.47;95705.72;5049371;28;20191;-55
2023/12/19 08:56:46;;;;;;;55.97;35.13;;;;;;;13.34;58.63;95707.25;5050199;28;20190;-56
2023/12/19 08:59:14;;;;;;;50.33;35.37;;;;;;;13.24;58.91;95706.44;5049572;28;20191;-57
2023/12/19 09:11:14;;;;;;;49.37;35.10;;;;;;;12.79;59.46;95699.00;6066408;23;20548;-59
2023/12/19 09:13:41;;;;;;;49.43;33.57;;;;;;;12.69;59.43;95688.66;5016884;28;1145556;-58
2023/12/19 09:16:09;;;;;;;53.23;36.17;;;;;;;12.57;59.53;95670.94;5069871;28;20659;-61
2023/12/19 09:18:36;;;;;;;58.27;36.07;;;;;;;12.38;59.58;95646.75;5070062;28;20205;-62
2023/12/19 09:21:03;;;;;;;60.70;37.63;;;;;;;12.53;59.58;95675.50;5067370;28;20574;-56
2023/12/19 09:23:30;;;;;;;56.00;35.60;;;;;;;12.47;59.66;95674.22;5068519;28;20578;-57
2023/12/19 09:25:56;;;;;;;56.83;36.67;;;;;;;12.42;59.68;95665.28;5069413;28;20202;-59
2023/12/19 09:28:23;;;;;;;54.03;35.90;;;;;;;12.37;59.82;95669.97;5069429;28;20218;-58
2023/12/19 09:34:13;;;;;;;61.70;38.30;;;;;;;12.19;59.81;95649.19;5068424;28;21990;-57
2023/12/19 09:36:40;;;;;;;57.80;37.70;;;;;;;12.20;60.13;95661.88;5069907;28;20263;-60
2023/12/19 09:39:07;;;;;;;60.43;39.53;;;;;;;12.18;59.91;95653.50;5061730;28;20191;-56
2023/12/19 09:41:34;;;;;;;62.13;40.53;;;;;;;12.08;60.21;95639.78;5050209;28;20182;-51
2023/12/19 09:44:00;;;;;;;62.43;40.23;;;;;;;12.15;60.08;95655.50;5068678;28;20194;-50
2023/12/19 09:46:29;;;;;;;61.07;40.83;;;;;;;12.12;59.99;95645.47;5069691;28;20190;-48
2023/12/19 09:48:55;;;;;;;70.60;39.93;;;;;;;12.13;60.12;95650.47;5069629;28;20253;-48
2023/12/19 09:51:29;;;;;;;69.60;41.73;;;;;;;12.14;60.03;95648.75;5058338;28;20187;-50
2023/12/19 09:53:57;;;;;;;64.67;40.00;;;;;;;12.13;60.15;95647.91;5049440;28;20183;-53
2023/12/19 09:56:24;;;;;;;62.90;41.30;;;;;;;12.10;60.10;95640.50;5049087;28;20253;-49
2023/12/19 09:58:52;;;;;;;70.50;41.63;;;;;;;12.14;60.26;95639.31;5060177;28;20327;-48
2023/12/19 10:01:19;;;;;;;68.90;43.10;;;;;;;12.16;60.34;95637.41;5069410;28;20190;-49
2023/12/19 10:03:49;;;;;;;69.07;43.70;;;;;;;12.18;60.18;95627.88;5054716;28;20187;-49
2023/12/19 10:06:16;;;;;;;72.43;40.87;;;;;;;12.20;60.24;95627.72;5049583;28;20187;-49
2023/12/19 10:08:45;;;;;;;66.67;41.87;;;;;;;12.22;60.14;95626.69;5064684;28;20278;-48
2023/12/19 10:11:17;;;;;;;74.30;44.50;;;;;;;12.21;60.09;95609.66;5067429;28;20205;-49
2023/12/19 10:13:45;;;;;;;71.20;43.90;;;;;;;12.27;60.23;95613.50;5067470;28;20190;-46
2023/12/19 10:16:13;;;;;;;63.83;43.03;;;;;;;12.11;60.05;95588.28;5069177;28;20565;-48
2023/12/19 10:18:42;;;;;;;69.50;44.47;;;;;;;12.33;59.97;95615.53;5068974;28;20655;-50
2023/12/19 10:21:10;;;;;;;74.27;44.40;;;;;;;12.37;59.91;95603.28;5071465;28;20247;-50
2023/12/19 10:23:38;;;;;;;79.30;47.03;;;;;;;12.37;59.93;95600.72;5071557;28;20179;-47
2023/12/19 10:26:06;;;;;;;75.97;46.17;;;;;;;12.44;59.84;95609.53;5070953;28;20191;-52
2023/12/19 10:28:34;;;;;;;68.60;43.80;;;;;;;12.43;59.65;95601.00;5069928;28;20241;-51
2023/12/19 10:31:11;;;;;;;76.17;45.93;;;;;;;12.33;59.63;95566.00;5071929;28;20201;-48
2023/12/19 10:33:42;;;;;;;67.77;43.07;;;;;;;12.51;59.73;95584.97;5071945;28;20330;-49
2023/12/19 10:36:10;;;;;;;71.53;43.73;;;;;;;12.54;59.55;95577.03;5072523;28;20273;-49
2023/12/19 10:38:46;;;;;;;72.23;46.23;;;;;;;12.57;59.57;95574.22;5071300;28;21808;-48
2023/12/19 10:41:20;;;;;;;69.97;43.93;;;;;;;12.60;59.50;95570.56;5070458;28;20634;-48
2023/12/19 10:43:49;;;;;;;71.77;45.40;;;;;;;12.64;59.37;95569.38;5071655;28;20202;-48
2023/12/19 10:46:18;;;;;;;66.57;44.00;;;;;;;12.60;59.35;95552.63;5072330;28;20187;-50
2023/12/19 10:48:44;;;;;;;72.97;46.30;;;;;;;12.70;59.44;95538.09;5071356;28;20214;-47
2023/12/19 10:51:15;;;;;;;69.80;45.07;;;;;;;12.73;59.42;95538.63;5071925;28;20973;-49
2023/12/19 10:53:49;;;;;;;76.33;46.43;;;;;;;12.78;59.17;95538.25;5071498;28;20652;-46
2023/12/19 10:56:22;;;;;;;72.93;46.93;;;;;;;12.85;59.00;95528.25;5071367;28;20194;-49
2023/12/19 10:58:56;;;;;;;69.53;46.13;;;;;;;12.96;58.89;95520.47;5071205;28;20221;-47
2023/12/19 11:01:27;;;;;;;73.47;46.30;;;;;;;13.05;58.78;95523.03;5071790;28;20272;-47
2023/12/19 11:03:59;;;;;;;67.00;44.90;;;;;;;13.13;58.86;95519.00;5069141;28;20277;-47
2023/12/19 11:06:30;;;;;;;73.87;45.27;;;;;;;13.15;58.94;95507.63;5071195;28;20239;-49
2023/12/19 11:09:05;;;;;;;69.90;47.83;;;;;;;13.18;58.92;95507.38;5071102;28;20222;-47
2023/12/19 11:11:37;;;;;;;75.70;47.73;;;;;;;13.20;58.93;95500.34;5070471;28;20194;-47
2023/12/19 11:14:06;;;;;;;67.80;44.87;;;;;;;13.22;58.85;95490.78;5068840;28;20204;-49
2023/12/19 11:16:41;;;;;;;76.30;47.20;;;;;;;13.24;58.98;95481.19;5071428;28;20588;-50
2023/12/19 11:19:16;;;;;;;72.30;47.63;;;;;;;13.27;58.99;95482.69;5071107;28;20186;-51
2023/12/19 11:21:50;;;;;;;77.53;49.80;;;;;;;13.27;58.86;95475.78;5071363;28;20323;-50
2023/12/19 11:24:23;;;;;;;74.07;47.03;;;;;;;13.28;58.90;95472.25;5069457;28;20198;-50
2023/12/19 11:26:56;;;;;;;70.43;46.07;;;;;;;13.31;58.83;95466.06;5070610;28;20273;-49
2023/12/19 11:29:47;;;;;;;79.43;48.70;;;;;;;13.32;58.94;95467.66;5070254;28;20218;-50
2023/12/19 11:32:37;;;;;;;71.60;45.53;;;;;;;13.32;58.70;95461.72;5070792;28;20225;-49
2023/12/19 11:35:13;;;;;;;68.30;46.83;;;;;;;13.30;58.67;95454.97;5070291;28;20563;-48
2023/12/19 11:37:41;;;;;;;73.67;46.43;;;;;;;13.30;58.79;95452.41;5068709;28;20178;-47